Time;durP1;ratioP1;P1;durP2;ratioP2;P2;SDS_P1;SDS_P2;PMS_P1;PMS_P2;Temp;Humidity;BMP_temperature;BMP_pressure;BME280_temperature;BME280_humidity;BME280_pressure;Samples;Min_cycle;Max_cycle;Signal;HPM_P1;HPM_P2
2023/06/27 00:01:26;;;;;;;9.30;9.00;;;13.60;99.90;;;;;;5046501;28;20463;-68
2023/06/27 00:03:53;;;;;;;9.13;8.83;;;13.60;99.90;;;;;;5041534;28;20695;-67
2023/06/27 00:06:20;;;;;;;9.30;9.00;;;13.60;99.90;;;;;;5043370;28;20784;-67
2023/06/27 00:08:49;;;;;;;9.00;8.70;;;13.60;99.90;;;;;;5049363;28;20460;-66
2023/06/27 00:11:16;;;;;;;9.00;8.70;;;13.70;99.90;;;;;;5034904;28;20526;-65
2023/06/27 00:13:44;;;;;;;9.40;9.10;;;13.80;99.90;;;;;;5039802;28;20460;-66
2023/06/27 00:16:13;;;;;;;9.30;9.00;;;13.80;99.90;;;;;;5040342;28;20520;-66
2023/06/27 00:18:40;;;;;;;9.37;9.07;;;13.80;99.90;;;;;;5039898;28;20460;-66
2023/06/27 00:21:08;;;;;;;9.60;9.30;;;13.90;99.90;;;;;;5043672;28;20486;-66
2023/06/27 00:23:35;;;;;;;25.03;24.10;;;13.90;99.90;;;;;;5046404;28;20465;-67
2023/06/27 00:26:06;;;;;;;11.30;10.90;;;13.90;99.90;;;;;;5036021;28;20491;-66
2023/06/27 00:28:34;;;;;;;9.30;9.00;;;13.90;99.90;;;;;;5039283;28;20841;-66
2023/06/27 00:31:00;;;;;;;9.23;8.93;;;13.90;99.90;;;;;;5040899;28;20737;-66
2023/06/27 00:33:27;;;;;;;9.17;8.87;;;13.90;99.90;;;;;;5041723;28;21021;-66
2023/06/27 00:35:54;;;;;;;9.37;9.07;;;13.90;99.90;;;;;;5042338;28;20927;-65
2023/06/27 00:38:21;;;;;;;9.13;8.83;;;13.90;99.90;;;;;;5044036;28;20490;-66
2023/06/27 00:40:48;;;;;;;8.80;8.50;;;14.00;99.90;;;;;;5046831;28;20481;-66
2023/06/27 00:43:17;;;;;;;9.20;8.90;;;14.00;99.90;;;;;;5036005;28;20692;-67
2023/06/27 00:45:44;;;;;;;8.80;8.50;;;14.10;99.90;;;;;;5038456;28;20534;-66
2023/06/27 00:48:14;;;;;;;9.30;9.00;;;14.10;99.90;;;;;;5037658;28;20472;-66
2023/06/27 00:50:41;;;;;;;8.60;8.30;;;14.10;99.90;;;;;;5049230;28;20838;-66
2023/06/27 00:53:08;;;;;;;8.60;8.30;;;14.20;99.90;;;;;;5029902;28;20468;-65
2023/06/27 00:55:37;;;;;;;8.40;8.10;;;14.10;99.90;;;;;;5046525;28;20578;-66
2023/06/27 00:58:05;;;;;;;9.80;9.60;;;14.10;99.90;;;;;;5042839;28;20491;-67
2023/06/27 01:00:33;;;;;;;12.10;11.77;;;14.10;99.90;;;;;;5034296;28;20459;-67
2023/06/27 01:02:59;;;;;;;8.83;8.53;;;14.10;99.90;;;;;;5029688;28;20467;-67
2023/06/27 01:05:27;;;;;;;16.13;15.53;;;14.20;99.90;;;;;;5045110;28;20503;-66
2023/06/27 01:07:59;;;;;;;14.33;13.83;;;14.30;99.90;;;;;;5032161;28;20464;-66
2023/06/27 01:10:34;;;;;;;9.23;8.93;;;14.30;99.90;;;;;;5039915;28;20959;-66
2023/06/27 01:13:07;;;;;;;8.80;8.50;;;14.30;99.90;;;;;;5045001;28;20467;-67
2023/06/27 01:15:36;;;;;;;9.57;9.27;;;14.30;99.90;;;;;;5043479;28;20892;-67
2023/06/27 01:18:05;;;;;;;9.20;8.90;;;14.30;99.90;;;;;;5037562;28;20472;-66
2023/06/27 01:20:34;;;;;;;9.10;8.80;;;14.30;99.90;;;;;;5041297;28;20475;-66
2023/06/27 01:23:08;;;;;;;9.17;8.87;;;14.30;99.90;;;;;;5036543;28;21103;-67
2023/06/27 01:25:38;;;;;;;9.00;8.70;;;14.30;99.90;;;;;;5036266;28;20631;-66
2023/06/27 01:28:06;;;;;;;9.10;8.80;;;14.30;99.90;;;;;;5043888;28;20551;-67
2023/06/27 01:30:34;;;;;;;8.57;8.27;;;14.40;99.90;;;;;;5045079;28;20483;-68
2023/06/27 01:33:05;;;;;;;8.80;8.50;;;14.40;99.90;;;;;;5045721;28;21029;-67
2023/06/27 01:35:37;;;;;;;8.57;8.27;;;14.40;99.90;;;;;;5035434;28;20603;-66
2023/06/27 01:38:11;;;;;;;8.60;8.30;;;14.40;99.90;;;;;;5044048;28;20495;-67
2023/06/27 01:40:42;;;;;;;9.50;9.20;;;14.40;99.90;;;;;;5043975;28;20491;-67
2023/06/27 01:43:11;;;;;;;9.47;9.17;;;14.50;99.90;;;;;;5045464;28;20451;-66
2023/06/27 01:45:40;;;;;;;9.30;9.00;;;14.60;99.90;;;;;;5038894;28;20553;-66
2023/06/27 01:48:08;;;;;;;9.17;8.97;;;14.60;99.90;;;;;;5040928;28;20472;-66
2023/06/27 01:50:35;;;;;;;9.40;9.20;;;14.70;99.90;;;;;;5040029;28;20456;-66
2023/06/27 01:53:02;;;;;;;13.50;13.10;;;14.70;99.90;;;;;;5042939;28;20472;-67
2023/06/27 01:55:32;;;;;;;14.30;13.80;;;14.70;99.90;;;;;;5038840;28;20470;-67
2023/06/27 01:58:01;;;;;;;10.17;9.77;;;14.70;99.90;;;;;;5047885;28;20463;-68
2023/06/27 02:00:29;;;;;;;9.47;9.17;;;14.70;99.90;;;;;;5037966;28;20955;-67
2023/06/27 02:02:56;;;;;;;9.63;9.20;;;14.70;99.90;;;;;;5046870;28;20555;-67
2023/06/27 02:05:23;;;;;;;9.23;8.93;;;14.70;99.90;;;;;;5029290;28;20626;-67
2023/06/27 02:07:50;;;;;;;9.10;8.80;;;14.70;99.90;;;;;;5036687;28;20873;-66
2023/06/27 02:10:17;;;;;;;9.40;9.10;;;14.70;99.90;;;;;;5039549;28;20464;-68
2023/06/27 02:12:44;;;;;;;9.37;9.07;;;14.60;99.90;;;;;;5035624;28;20460;-68
2023/06/27 02:15:12;;;;;;;9.60;9.30;;;14.60;99.90;;;;;;5046209;28;20525;-67
2023/06/27 02:17:39;;;;;;;9.30;9.00;;;14.60;99.90;;;;;;5038974;28;20467;-67
2023/06/27 02:20:08;;;;;;;9.33;9.03;;;14.70;99.90;;;;;;5041318;28;20510;-68
2023/06/27 02:22:35;;;;;;;9.43;9.13;;;14.70;99.90;;;;;;5047545;28;20460;-66
2023/06/27 02:25:02;;;;;;;8.77;8.47;;;14.60;99.90;;;;;;5040822;28;20486;-67
2023/06/27 02:27:29;;;;;;;9.00;8.70;;;14.60;99.90;;;;;;5039248;28;20459;-66
2023/06/27 02:29:56;;;;;;;10.77;10.03;;;14.60;99.90;;;;;;5039123;28;20466;-67
2023/06/27 02:32:24;;;;;;;9.83;9.33;;;14.50;99.90;;;;;;5037126;28;20483;-67
2023/06/27 02:34:51;;;;;;;9.20;8.90;;;14.40;99.90;;;;;;5047293;28;20468;-67
2023/06/27 02:37:18;;;;;;;8.93;8.63;;;14.50;99.90;;;;;;5039902;28;20518;-67
2023/06/27 02:39:45;;;;;;;9.07;8.77;;;14.40;99.90;;;;;;5042345;28;21041;-67
2023/06/27 02:42:11;;;;;;;13.37;12.67;;;14.50;99.90;;;;;;5042174;28;20836;-67
2023/06/27 02:44:38;;;;;;;9.07;8.77;;;14.50;99.90;;;;;;5034600;28;20519;-67
2023/06/27 02:47:05;;;;;;;21.90;21.03;;;14.40;99.90;;;;;;5028566;28;20498;-67
2023/06/27 02:49:33;;;;;;;9.10;8.80;;;14.50;99.90;;;;;;5043993;28;20463;-68
2023/06/27 02:52:00;;;;;;;9.60;9.10;;;14.50;99.90;;;;;;5041830;28;20476;-66
2023/06/27 02:54:27;;;;;;;8.80;8.50;;;14.60;99.90;;;;;;5037637;28;20471;-67
2023/06/27 02:56:55;;;;;;;8.73;8.43;;;14.50;99.90;;;;;;5046588;28;20466;-67
2023/06/27 02:59:21;;;;;;;12.83;9.93;;;14.50;99.90;;;;;;5038435;28;20456;-67
2023/06/27 03:01:48;;;;;;;9.20;8.90;;;14.50;99.90;;;;;;5039693;28;20859;-66
2023/06/27 03:04:21;;;;;;;9.07;8.77;;;14.50;99.90;;;;;;5033164;28;20457;-67
2023/06/27 03:06:52;;;;;;;8.80;8.50;;;14.40;99.90;;;;;;5042122;28;20495;-67
2023/06/27 03:09:19;;;;;;;8.73;8.43;;;14.40;99.90;;;;;;5041608;28;20822;-67
2023/06/27 03:11:46;;;;;;;8.93;8.63;;;14.30;99.90;;;;;;5034508;28;20464;-67
2023/06/27 03:14:17;;;;;;;9.07;8.77;;;14.30;99.90;;;;;;5041583;28;20530;-67
2023/06/27 03:16:44;;;;;;;9.00;8.70;;;14.30;99.90;;;;;;5037820;28;20575;-66
2023/06/27 03:19:10;;;;;;;18.47;17.77;;;14.30;99.90;;;;;;5046419;28;20954;-67
2023/06/27 03:21:37;;;;;;;8.53;8.23;;;14.30;99.90;;;;;;5036873;28;20558;-67
2023/06/27 03:24:07;;;;;;;8.70;8.40;;;14.30;99.90;;;;;;5036760;28;20517;-67
2023/06/27 03:26:34;;;;;;;8.00;7.80;;;14.30;99.90;;;;;;5037758;28;20492;-68
2023/06/27 03:29:00;;;;;;;8.00;7.80;;;14.30;99.90;;;;;;5034151;28;20941;-66
2023/06/27 03:31:28;;;;;;;8.73;8.43;;;14.30;99.90;;;;;;5032238;28;20535;-67
2023/06/27 03:33:57;;;;;;;14.50;14.00;;;14.40;99.90;;;;;;5044609;28;20456;-66
2023/06/27 03:36:24;;;;;;;7.67;7.47;;;14.30;99.90;;;;;;5034019;28;20460;-66
2023/06/27 03:38:53;;;;;;;7.50;7.30;;;14.30;99.90;;;;;;5042461;28;20681;-67
2023/06/27 03:41:21;;;;;;;8.27;7.97;;;14.20;99.90;;;;;;5029366;28;20468;-67
2023/06/27 03:43:48;;;;;;;7.87;7.67;;;14.30;99.90;;;;;;5040178;28;20471;-67
2023/06/27 03:46:16;;;;;;;7.70;7.50;;;14.30;99.90;;;;;;5039004;28;20489;-66
2023/06/27 03:48:43;;;;;;;7.70;7.50;;;14.20;99.90;;;;;;5034821;28;20465;-66
2023/06/27 03:51:10;;;;;;;7.67;7.37;;;14.20;99.90;;;;;;5040103;28;20475;-67
2023/06/27 03:53:36;;;;;;;7.17;6.97;;;14.20;99.90;;;;;;5041541;28;20475;-67
2023/06/27 03:56:04;;;;;;;7.23;7.03;;;14.20;99.90;;;;;;5036595;28;20523;-66
2023/06/27 03:58:32;;;;;;;6.60;6.40;;;14.20;99.90;;;;;;5042474;28;20463;-67
2023/06/27 04:00:59;;;;;;;7.33;7.13;;;14.20;99.90;;;;;;5029847;28;21114;-67
2023/06/27 04:03:26;;;;;;;7.50;7.30;;;14.20;99.90;;;;;;5036045;28;20467;-67
2023/06/27 04:05:53;;;;;;;7.53;7.33;;;14.20;99.90;;;;;;5035941;28;21040;-66
2023/06/27 04:08:21;;;;;;;7.00;6.80;;;14.20;99.90;;;;;;5039812;28;20461;-67
2023/06/27 04:10:47;;;;;;;7.17;6.97;;;14.30;99.90;;;;;;5038155;28;20656;-67
2023/06/27 04:13:15;;;;;;;7.70;7.20;;;14.30;99.90;;;;;;5038983;28;20617;-66
2023/06/27 04:15:43;;;;;;;8.77;8.37;;;14.30;99.90;;;;;;5036626;28;20488;-67
2023/06/27 04:18:10;;;;;;;7.00;6.80;;;14.30;99.90;;;;;;5035961;28;20467;-68
2023/06/27 04:20:37;;;;;;;7.00;6.80;;;14.40;99.90;;;;;;5040611;28;20486;-66
2023/06/27 04:23:04;;;;;;;6.93;6.73;;;14.40;99.90;;;;;;5041303;28;20483;-67
2023/06/27 04:28:14;;;;;;;6.80;6.60;;;14.50;99.90;;;;;;5037367;28;20456;-66
2023/06/27 04:30:41;;;;;;;7.10;6.90;;;14.50;99.90;;;;;;5036456;28;20463;-67
2023/06/27 04:33:13;;;;;;;7.10;6.90;;;14.50;99.90;;;;;;5045792;28;20452;-66
2023/06/27 04:35:40;;;;;;;7.00;6.80;;;14.60;99.90;;;;;;5033608;28;20595;-68
2023/06/27 04:38:08;;;;;;;7.07;6.87;;;14.60;99.90;;;;;;5041285;28;20876;-66
2023/06/27 04:40:36;;;;;;;7.00;6.80;;;14.60;99.90;;;;;;5044380;28;20505;-66
2023/06/27 04:43:02;;;;;;;8.00;7.70;;;14.70;99.90;;;;;;5034673;28;20526;-66
2023/06/27 04:45:29;;;;;;;6.93;6.73;;;14.60;99.90;;;;;;5038489;28;20912;-66
2023/06/27 04:47:57;;;;;;;7.53;7.23;;;14.70;99.90;;;;;;5044989;28;20505;-67
2023/06/27 04:50:26;;;;;;;8.03;7.73;;;14.70;99.90;;;;;;5041189;28;20514;-67
2023/06/27 04:52:53;;;;;;;7.60;7.30;;;14.70;99.90;;;;;;5049239;28;20970;-67
2023/06/27 04:55:20;;;;;;;7.57;7.37;;;14.90;99.90;;;;;;5041416;28;20489;-67
2023/06/27 04:57:46;;;;;;;7.40;7.20;;;14.90;99.90;;;;;;5046474;28;20996;-66
2023/06/27 05:00:15;;;;;;;7.47;7.27;;;15.00;99.90;;;;;;5037867;28;20456;-67
2023/06/27 05:02:41;;;;;;;8.67;8.33;;;15.00;99.90;;;;;;5028028;28;20483;-66
2023/06/27 05:05:09;;;;;;;8.57;8.27;;;15.10;99.90;;;;;;5040854;28;20471;-67
2023/06/27 05:07:37;;;;;;;9.27;8.73;;;15.10;99.90;;;;;;5034972;28;20484;-66
2023/06/27 05:10:05;;;;;;;8.70;8.40;;;15.10;99.90;;;;;;5034122;28;20818;-66
2023/06/27 05:12:33;;;;;;;11.33;10.50;;;15.10;99.90;;;;;;5029347;28;20863;-68
2023/06/27 05:14:59;;;;;;;8.60;8.30;;;15.10;99.90;;;;;;5040805;28;20484;-66
2023/06/27 05:17:26;;;;;;;8.20;7.90;;;15.10;99.90;;;;;;5041034;28;20459;-67
2023/06/27 05:19:53;;;;;;;9.10;8.70;;;15.10;99.90;;;;;;5045650;28;21131;-66
2023/06/27 05:22:20;;;;;;;8.50;8.20;;;15.20;99.90;;;;;;5039345;28;20658;-67
2023/06/27 05:24:49;;;;;;;8.80;8.50;;;15.10;99.90;;;;;;5043807;28;20465;-67
2023/06/27 05:27:16;;;;;;;8.70;8.40;;;15.20;99.90;;;;;;5037339;28;20488;-66
2023/06/27 05:29:44;;;;;;;9.17;8.77;;;15.20;99.90;;;;;;5037862;28;20460;-67
2023/06/27 05:32:10;;;;;;;8.10;7.80;;;15.20;99.90;;;;;;5040588;28;20889;-67
2023/06/27 05:34:37;;;;;;;9.03;8.73;;;15.30;99.90;;;;;;5044154;28;20464;-66
2023/06/27 05:37:05;;;;;;;8.37;8.07;;;15.30;99.90;;;;;;5042072;28;20464;-67
2023/06/27 05:39:32;;;;;;;11.23;10.43;;;15.30;99.90;;;;;;5045407;28;20459;-66
2023/06/27 05:42:02;;;;;;;9.13;8.83;;;15.40;99.90;;;;;;5044843;28;20459;-66
2023/06/27 05:44:29;;;;;;;10.13;9.63;;;15.60;99.90;;;;;;5043417;28;20823;-68
2023/06/27 05:46:56;;;;;;;11.43;10.80;;;15.80;99.90;;;;;;5040275;28;20767;-67
2023/06/27 05:49:23;;;;;;;9.50;9.20;;;15.90;99.90;;;;;;5034646;28;20908;-68
2023/06/27 05:51:50;;;;;;;9.87;9.57;;;16.00;99.90;;;;;;5047091;28;20460;-67
2023/06/27 05:54:17;;;;;;;11.60;10.90;;;16.10;99.90;;;;;;5036467;28;20468;-67
2023/06/27 05:56:44;;;;;;;12.27;11.20;;;16.30;99.90;;;;;;5047338;28;20472;-67
2023/06/27 05:59:12;;;;;;;12.07;11.57;;;16.40;99.90;;;;;;5037613;28;21003;-67
2023/06/27 06:01:39;;;;;;;17.83;11.37;;;16.40;99.90;;;;;;5043314;28;21008;-66
2023/06/27 06:04:05;;;;;;;11.93;11.20;;;16.50;99.90;;;;;;5047359;28;20460;-67
2023/06/27 06:06:37;;;;;;;11.90;11.40;;;16.60;99.90;;;;;;5036818;28;20483;-66
2023/06/27 06:09:04;;;;;;;12.93;11.87;;;16.70;99.90;;;;;;5039807;28;20518;-67
2023/06/27 06:11:31;;;;;;;11.53;11.10;;;16.90;99.90;;;;;;5041805;28;20451;-67
2023/06/27 06:13:58;;;;;;;12.10;11.60;;;17.00;99.90;;;;;;5036597;28;20474;-66
2023/06/27 06:16:27;;;;;;;11.97;11.47;;;17.00;99.90;;;;;;5038991;28;20491;-68
2023/06/27 06:18:54;;;;;;;14.00;13.30;;;17.20;99.90;;;;;;5033279;28;20465;-68
2023/06/27 06:21:21;;;;;;;14.00;13.30;;;17.30;99.90;;;;;;5038330;28;20484;-65
2023/06/27 06:23:47;;;;;;;23.30;22.27;;;17.30;99.90;;;;;;5040885;28;20476;-66
2023/06/27 06:26:14;;;;;;;12.40;11.80;;;17.40;99.90;;;;;;5035735;28;20465;-67
2023/06/27 06:28:41;;;;;;;12.80;12.30;;;17.50;99.90;;;;;;5039098;28;20464;-65
2023/06/27 06:31:10;;;;;;;12.37;11.87;;;17.60;99.90;;;;;;5036021;28;21311;-65
2023/06/27 06:33:39;;;;;;;12.70;12.20;;;17.60;99.90;;;;;;5035760;28;20503;-67
2023/06/27 06:36:06;;;;;;;15.33;14.10;;;17.80;99.90;;;;;;5039749;28;20460;-66
2023/06/27 06:38:33;;;;;;;13.43;12.83;;;17.90;99.90;;;;;;5036182;28;20456;-66
2023/06/27 06:41:00;;;;;;;28.87;13.17;;;17.90;99.90;;;;;;5033176;28;20931;-66
2023/06/27 06:43:27;;;;;;;26.17;24.97;;;18.00;99.90;;;;;;5034376;28;20467;-66
2023/06/27 06:45:54;;;;;;;18.73;17.23;;;18.10;99.90;;;;;;5046671;28;21009;-66
2023/06/27 06:48:21;;;;;;;28.87;21.90;;;18.20;99.90;;;;;;5040051;28;20500;-65
2023/06/27 06:50:51;;;;;;;17.87;17.07;;;18.20;99.90;;;;;;5033052;28;20487;-67
2023/06/27 06:53:18;;;;;;;16.20;15.00;;;18.30;99.90;;;;;;5038130;28;20963;-66
2023/06/27 06:55:45;;;;;;;15.17;14.30;;;18.30;99.90;;;;;;5033714;28;20518;-66
2023/06/27 06:58:13;;;;;;;15.60;14.93;;;18.30;99.90;;;;;;5043011;28;20465;-66
2023/06/27 07:00:40;;;;;;;14.03;13.43;;;18.40;99.90;;;;;;5043137;28;20468;-66
2023/06/27 07:03:09;;;;;;;17.73;17.03;;;18.50;99.90;;;;;;5038486;28;20470;-65
2023/06/27 07:05:35;;;;;;;18.57;17.87;;;18.60;99.90;;;;;;5041760;28;20492;-66
2023/06/27 07:08:05;;;;;;;14.17;13.67;;;18.60;99.90;;;;;;5040387;28;20498;-66
2023/06/27 07:10:32;;;;;;;13.60;13.10;;;18.60;99.90;;;;;;5038726;28;20482;-66
2023/06/27 07:12:59;;;;;;;13.17;12.67;;;18.70;99.90;;;;;;5039282;28;21054;-66
2023/06/27 07:15:26;;;;;;;13.67;13.17;;;18.80;99.90;;;;;;5030434;28;20561;-66
2023/06/27 07:17:53;;;;;;;15.47;14.43;;;18.70;99.90;;;;;;5033937;28;20471;-67
2023/06/27 07:20:22;;;;;;;14.80;13.63;;;18.80;99.90;;;;;;5036851;28;20467;-66
2023/06/27 07:22:48;;;;;;;14.17;13.60;;;18.90;99.90;;;;;;5025663;28;20606;-67
2023/06/27 07:25:17;;;;;;;14.40;13.80;;;19.10;99.90;;;;;;5033354;28;20511;-67
2023/06/27 07:27:44;;;;;;;13.67;13.07;;;19.00;99.90;;;;;;5032854;28;20495;-66
2023/06/27 07:30:11;;;;;;;16.10;15.40;;;19.00;99.90;;;;;;5030351;28;20907;-66
2023/06/27 07:32:39;;;;;;;14.57;13.60;;;19.20;99.90;;;;;;5031172;28;20559;-65
2023/06/27 07:35:07;;;;;;;17.67;16.10;;;19.20;99.90;;;;;;5024192;28;20455;-66
2023/06/27 07:37:34;;;;;;;15.90;15.40;;;19.30;99.90;;;;;;5040352;28;20463;-66
2023/06/27 07:40:03;;;;;;;15.10;14.60;;;19.40;99.90;;;;;;5031308;28;20948;-67
2023/06/27 07:42:31;;;;;;;15.23;14.63;;;19.50;99.90;;;;;;5028679;28;20460;-67
2023/06/27 07:44:59;;;;;;;13.70;13.20;;;19.60;99.90;;;;;;5029561;28;20547;-66
2023/06/27 07:47:26;;;;;;;15.40;14.60;;;19.80;99.90;;;;;;5039221;28;20549;-66
2023/06/27 07:49:53;;;;;;;33.67;13.73;;;19.90;99.90;;;;;;5033481;28;20464;-67
2023/06/27 07:52:20;;;;;;;18.83;17.93;;;19.80;99.90;;;;;;5029852;28;20459;-67
2023/06/27 07:54:47;;;;;;;12.60;12.10;;;19.90;99.90;;;;;;5039197;28;20461;-67
2023/06/27 07:57:14;;;;;;;14.43;13.83;;;20.10;99.90;;;;;;5034449;28;20464;-66
2023/06/27 07:59:42;;;;;;;16.10;15.43;;;20.40;99.90;;;;;;5039306;28;20874;-66
2023/06/27 08:02:09;;;;;;;20.53;19.63;;;20.30;99.90;;;;;;5035565;28;20681;-66
2023/06/27 08:04:36;;;;;;;16.43;15.73;;;20.60;99.90;;;;;;5035326;28;20464;-66
2023/06/27 08:07:04;;;;;;;14.80;14.13;;;21.10;99.90;;;;;;5036671;28;20479;-67
2023/06/27 08:09:31;;;;;;;14.30;13.90;;;21.60;99.90;;;;;;5035774;28;20893;-66
2023/06/27 08:11:58;;;;;;;17.10;16.40;;;21.80;99.90;;;;;;5031379;28;20943;-67
2023/06/27 08:14:26;;;;;;;15.50;14.90;;;22.20;99.90;;;;;;5025587;28;20464;-67
2023/06/27 08:16:55;;;;;;;16.13;15.53;;;22.60;99.90;;;;;;5033720;28;20460;-66
2023/06/27 08:19:22;;;;;;;19.07;18.17;;;22.40;99.90;;;;;;5032481;28;21009;-67
2023/06/27 08:21:48;;;;;;;17.03;16.33;;;22.60;99.90;;;;;;5034064;28;20825;-67
2023/06/27 08:24:15;;;;;;;14.83;14.33;;;22.90;99.90;;;;;;5034409;28;20468;-67
2023/06/27 08:26:42;;;;;;;17.27;16.67;;;23.30;99.90;;;;;;5036013;28;20469;-66
2023/06/27 08:29:09;;;;;;;17.20;15.83;;;24.10;99.90;;;;;;5034990;28;20974;-66
2023/06/27 08:31:36;;;;;;;16.87;16.27;;;24.30;99.90;;;;;;5032369;28;20463;-67
2023/06/27 08:34:04;;;;;;;18.73;17.87;;;24.10;99.90;;;;;;5034515;28;20484;-67
2023/06/27 08:36:30;;;;;;;16.30;15.70;;;23.80;99.90;;;;;;5033198;28;20460;-67
2023/06/27 08:38:57;;;;;;;14.53;14.03;;;23.50;99.90;;;;;;5036924;28;21113;-66
2023/06/27 08:41:25;;;;;;;17.37;16.67;;;23.50;99.90;;;;;;5034433;28;20487;-66
2023/06/27 08:43:52;;;;;;;15.10;14.60;;;23.30;99.90;;;;;;5039388;28;20506;-67
2023/06/27 08:46:21;;;;;;;14.10;13.60;;;23.20;99.90;;;;;;5034331;28;20476;-67
2023/06/27 08:48:50;;;;;;;14.70;14.20;;;23.60;99.90;;;;;;5031273;28;20488;-67
2023/06/27 08:51:22;;;;;;;14.93;14.43;;;23.60;99.90;;;;;;5033904;28;20460;-67
2023/06/27 08:53:52;;;;;;;15.60;15.10;;;23.30;99.90;;;;;;5034517;28;20474;-66
2023/06/27 08:56:21;;;;;;;15.00;14.50;;;23.70;99.90;;;;;;5032852;28;20872;-67
2023/06/27 08:58:51;;;;;;;14.87;14.37;;;23.90;99.90;;;;;;5035383;28;20463;-67
2023/06/27 09:01:18;;;;;;;14.47;13.97;;;24.10;99.90;;;;;;5038967;28;20866;-67
2023/06/27 09:03:45;;;;;;;14.00;13.60;;;24.30;99.90;;;;;;5030521;28;20549;-67
2023/06/27 09:06:13;;;;;;;14.50;14.00;;;24.30;99.90;;;;;;5038195;28;20456;-67
2023/06/27 09:08:42;;;;;;;14.60;14.10;;;24.30;99.90;;;;;;5034100;28;21034;-67
2023/06/27 09:11:09;;;;;;;14.40;13.90;;;24.10;99.90;;;;;;5030958;28;21970;-67
2023/06/27 09:13:37;;;;;;;14.80;14.30;;;24.00;99.90;;;;;;5036578;28;20463;-67
2023/06/27 09:16:05;;;;;;;14.50;14.00;;;23.70;99.90;;;;;;5038600;28;20765;-66
2023/06/27 09:18:32;;;;;;;14.67;14.17;;;24.30;99.90;;;;;;5031386;28;20456;-66
2023/06/27 09:20:58;;;;;;;15.27;14.77;;;24.60;99.90;;;;;;5036543;28;20464;-67
2023/06/27 09:23:28;;;;;;;15.20;14.70;;;24.40;99.90;;;;;;5035716;28;21231;-66
2023/06/27 09:26:08;;;;;;;15.37;14.87;;;24.30;99.90;;;;;;5036609;28;20890;-67
2023/06/27 09:28:46;;;;;;;15.00;14.50;;;24.20;99.90;;;;;;5038910;28;20495;-66
2023/06/27 09:31:13;;;;;;;16.30;15.70;;;24.00;99.90;;;;;;5038437;28;20474;-67
2023/06/27 09:33:41;;;;;;;16.33;15.63;;;24.40;99.90;;;;;;5037757;28;20556;-66
2023/06/27 09:36:08;;;;;;;16.27;15.67;;;24.40;99.90;;;;;;5029895;28;20467;-66
2023/06/27 09:38:35;;;;;;;15.17;14.67;;;24.10;99.90;;;;;;5037333;28;20555;-66
2023/06/27 09:41:03;;;;;;;16.23;15.63;;;23.90;99.90;;;;;;5035175;28;20460;-66
2023/06/27 09:43:35;;;;;;;17.57;16.87;;;24.20;99.90;;;;;;5037015;28;20463;-67
2023/06/27 09:46:04;;;;;;;15.17;14.67;;;24.70;99.90;;;;;;5039875;28;20467;-66
2023/06/27 09:48:31;;;;;;;14.40;13.90;;;24.90;99.90;;;;;;5043292;28;20507;-66
2023/06/27 09:51:02;;;;;;;14.30;13.80;;;25.10;99.90;;;;;;5039430;28;21085;-67
2023/06/27 09:53:30;;;;;;;14.27;13.77;;;24.90;99.90;;;;;;5040671;28;20533;-66
2023/06/27 09:55:58;;;;;;;16.40;15.80;;;25.00;99.90;;;;;;5035881;28;20580;-66
2023/06/27 09:58:29;;;;;;;14.33;13.83;;;24.70;99.90;;;;;;5041114;28;20579;-66
2023/06/27 10:01:04;;;;;;;14.10;13.60;;;24.50;99.90;;;;;;5042316;28;21014;-65
2023/06/27 10:03:32;;;;;;;14.33;13.83;;;24.40;99.90;;;;;;5036580;28;21435;-66
2023/06/27 10:05:58;;;;;;;16.40;15.80;;;24.20;99.90;;;;;;5035837;28;20518;-66
2023/06/27 10:08:27;;;;;;;14.90;14.40;;;24.80;99.90;;;;;;5032786;28;20499;-66
2023/06/27 10:10:56;;;;;;;14.73;14.23;;;25.50;99.90;;;;;;5043128;28;20464;-67
2023/06/27 10:13:24;;;;;;;14.53;14.03;;;26.20;99.90;;;;;;5034252;28;20547;-66
2023/06/27 10:15:51;;;;;;;14.47;13.97;;;26.50;99.90;;;;;;5036611;28;22017;-66
2023/06/27 10:18:19;;;;;;;15.60;15.07;;;26.50;99.90;;;;;;5041426;28;20470;-67
2023/06/27 10:20:46;;;;;;;16.50;15.70;;;26.20;99.90;;;;;;5031267;28;21368;-67
2023/06/27 10:23:13;;;;;;;16.10;15.40;;;26.10;99.90;;;;;;5033950;28;20517;-68
2023/06/27 10:25:42;;;;;;;15.60;14.90;;;25.90;99.90;;;;;;5036779;28;20487;-67
2023/06/27 10:28:09;;;;;;;16.07;15.27;;;25.30;99.90;;;;;;5038599;28;20590;-68
2023/06/27 10:30:43;;;;;;;15.60;14.90;;;25.80;99.90;;;;;;5034307;28;20989;-68
2023/06/27 10:33:20;;;;;;;15.90;15.20;;;26.10;99.90;;;;;;5035788;28;20470;-68
2023/06/27 10:35:53;;;;;;;15.67;14.97;;;26.60;99.90;;;;;;5033482;28;20464;-68
2023/06/27 10:38:21;;;;;;;16.30;15.50;;;26.50;99.90;;;;;;5041664;28;20464;-68
2023/06/27 10:41:09;;;;;;;17.37;16.23;;;25.50;99.90;;;;;;5033287;28;20522;-68
2023/06/27 10:43:37;;;;;;;19.97;19.07;;;25.20;99.90;;;;;;5033292;28;20628;-68
2023/06/27 10:46:08;;;;;;;16.77;15.77;;;25.40;99.90;;;;;;5037468;28;20948;-68
2023/06/27 10:48:36;;;;;;;16.60;15.70;;;25.80;99.90;;;;;;5032754;28;20505;-68
2023/06/27 10:51:10;;;;;;;16.93;16.13;;;26.20;99.90;;;;;;5031598;28;20456;-69
2023/06/27 10:53:43;;;;;;;16.40;15.60;;;26.60;99.90;;;;;;5031834;28;20467;-68
2023/06/27 10:56:17;;;;;;;16.53;15.73;;;26.30;99.90;;;;;;5026579;28;20905;-68
2023/06/27 10:58:45;;;;;;;19.07;18.20;;;25.70;99.90;;;;;;5029034;28;20464;-68
2023/06/27 11:01:12;;;;;;;16.70;15.90;;;25.60;99.90;;;;;;5027866;28;20465;-68
2023/06/27 11:03:43;;;;;;;15.87;15.17;;;25.40;99.90;;;;;;5037393;28;20475;-69
2023/06/27 11:06:12;;;;;;;18.90;18.10;;;25.40;99.90;;;;;;5040921;28;20545;-68
2023/06/27 11:08:40;;;;;;;15.53;14.83;;;25.40;99.90;;;;;;5028510;28;20566;-68
2023/06/27 11:11:08;;;;;;;16.47;15.77;;;25.80;99.90;;;;;;5037008;28;20460;-68
2023/06/27 11:13:36;;;;;;;16.27;15.57;;;26.00;99.60;;;;;;5031288;28;20825;-68
2023/06/27 11:16:03;;;;;;;20.37;19.40;;;26.40;99.90;;;;;;5032264;28;20487;-68
2023/06/27 11:18:30;;;;;;;17.90;17.10;;;26.40;99.90;;;;;;5028596;28;20487;-67
2023/06/27 11:20:58;;;;;;;21.73;20.37;;;26.90;99.70;;;;;;5036439;28;20502;-68
2023/06/27 11:23:27;;;;;;;19.90;18.80;;;27.30;99.60;;;;;;5031643;28;20507;-67
2023/06/27 11:25:54;;;;;;;20.83;19.57;;;27.10;99.30;;;;;;5033408;28;20465;-68
2023/06/27 11:28:23;;;;;;;16.20;15.50;;;27.10;98.60;;;;;;5040703;28;20499;-68
2023/06/27 11:30:50;;;;;;;18.87;17.97;;;26.50;99.90;;;;;;5028736;28;20881;-68
2023/06/27 11:33:19;;;;;;;17.43;16.63;;;25.70;99.90;;;;;;5032883;28;20465;-68
2023/06/27 11:35:47;;;;;;;16.90;16.20;;;25.60;99.50;;;;;;5035906;28;20529;-69
2023/06/27 11:38:15;;;;;;;18.10;17.00;;;25.90;99.90;;;;;;5037228;28;20666;-68
2023/06/27 11:40:51;;;;;;;16.00;15.30;;;25.80;99.90;;;;;;5029795;28;20472;-69
2023/06/27 11:43:19;;;;;;;15.87;15.10;;;26.50;99.60;;;;;;5033103;28;20819;-68
2023/06/27 11:45:47;;;;;;;15.77;15.07;;;26.60;97.50;;;;;;5035889;28;20491;-68
2023/06/27 11:48:14;;;;;;;15.60;15.00;;;26.60;99.90;;;;;;5032409;28;20480;-68
2023/06/27 11:51:05;;;;;;;16.50;15.80;;;26.80;99.90;;;;;;5038514;28;20465;-68
2023/06/27 11:53:33;;;;;;;15.90;15.20;;;28.00;99.50;;;;;;5031233;28;20546;-67
2023/06/27 11:56:02;;;;;;;17.53;16.70;;;28.40;96.70;;;;;;5036481;28;20463;-68
2023/06/27 11:58:30;;;;;;;16.10;15.40;;;28.30;95.30;;;;;;5033484;28;20987;-68
2023/06/27 12:00:57;;;;;;;16.10;15.30;;;27.70;95.70;;;;;;5036917;28;20460;-67
2023/06/27 12:03:29;;;;;;;16.13;15.43;;;26.70;98.40;;;;;;5028338;28;20476;-67
2023/06/27 12:05:57;;;;;;;16.17;15.47;;;26.20;96.90;;;;;;5035789;28;20532;-67
2023/06/27 12:08:29;;;;;;;16.97;16.00;;;25.50;98.60;;;;;;5033968;28;20557;-68
2023/06/27 12:11:00;;;;;;;19.13;18.27;;;24.80;99.70;;;;;;5033542;28;20500;-67
2023/06/27 12:13:33;;;;;;;18.67;17.80;;;24.40;99.90;;;;;;5035405;28;20455;-68
2023/06/27 12:15:59;;;;;;;15.80;15.13;;;24.00;99.90;;;;;;5033378;28;21203;-68
2023/06/27 12:18:28;;;;;;;16.10;15.40;;;23.80;99.90;;;;;;5034767;28;20473;-67
2023/06/27 12:20:56;;;;;;;15.97;15.23;;;23.60;99.90;;;;;;5035606;28;20498;-68
2023/06/27 12:23:23;;;;;;;16.53;15.73;;;23.50;99.90;;;;;;5031915;28;20467;-68
2023/06/27 12:25:50;;;;;;;15.23;14.60;;;23.70;99.90;;;;;;5034871;28;20479;-67
2023/06/27 12:28:18;;;;;;;15.50;14.80;;;24.20;99.90;;;;;;5030458;28;20490;-68
2023/06/27 12:30:46;;;;;;;16.67;15.90;;;24.00;99.90;;;;;;5030087;28;20549;-67
2023/06/27 12:33:13;;;;;;;17.73;16.93;;;24.00;99.90;;;;;;5039583;28;20452;-68
2023/06/27 12:35:40;;;;;;;16.23;15.33;;;24.60;99.90;;;;;;5027030;28;20465;-67
2023/06/27 12:38:07;;;;;;;15.97;15.27;;;25.80;99.90;;;;;;5036740;28;20456;-67
2023/06/27 12:40:35;;;;;;;21.63;20.60;;;26.50;98.70;;;;;;5029221;28;20870;-68
2023/06/27 12:43:05;;;;;;;24.17;23.00;;;26.70;96.40;;;;;;5037008;28;20555;-67